Time;durP1;ratioP1;P1;durP2;ratioP2;P2;SDS_P1;SDS_P2;PMS_P1;PMS_P2;Temp;Humidity;BMP_temperature;BMP_pressure;BME280_temperature;BME280_humidity;BME280_pressure;Samples;Min_cycle;Max_cycle;Signal;HPM_P1;HPM_P2
2024/03/18 00:00:47;;;;;;;3.80;1.50;;;25.60;64.80;;;;;;5076014;28;20221;-72
2024/03/18 00:03:14;;;;;;;2.03;1.43;;;25.40;65.30;;;;;;5057675;28;20232;-71
2024/03/18 00:05:41;;;;;;;2.80;1.30;;;25.20;66.10;;;;;;5074974;28;20183;-71
2024/03/18 00:08:08;;;;;;;7.30;1.93;;;25.20;66.50;;;;;;5080941;28;20326;-71
2024/03/18 00:10:36;;;;;;;3.10;1.80;;;25.00;67.00;;;;;;5076971;28;20183;-71
2024/03/18 00:13:03;;;;;;;6.07;1.77;;;25.10;66.80;;;;;;5081104;28;20244;-71
2024/03/18 00:15:34;;;;;;;5.63;1.80;;;25.00;67.10;;;;;;5073411;28;20175;-71
2024/03/18 00:18:01;;;;;;;4.70;1.67;;;25.00;66.60;;;;;;5077783;28;20195;-72
2024/03/18 00:20:31;;;;;;;6.70;1.87;;;24.80;67.00;;;;;;5075230;28;20185;-71
2024/03/18 00:22:59;;;;;;;2.40;1.73;;;24.80;67.70;;;;;;5080228;28;20186;-71
2024/03/18 00:25:27;;;;;;;1.50;1.40;;;24.80;67.90;;;;;;5074745;28;20187;-73
2024/03/18 00:27:54;;;;;;;2.17;1.43;;;24.90;67.90;;;;;;5058526;28;20238;-72
2024/03/18 00:30:24;;;;;;;2.70;1.67;;;24.90;67.70;;;;;;5075897;28;20205;-72
2024/03/18 00:32:52;;;;;;;2.07;1.40;;;24.90;67.30;;;;;;5080895;28;20607;-75
2024/03/18 00:35:19;;;;;;;3.97;1.57;;;24.90;67.10;;;;;;5070242;28;20536;-71
2024/03/18 00:37:46;;;;;;;3.17;1.50;;;25.10;67.00;;;;;;5080509;28;20249;-72
2024/03/18 00:40:14;;;;;;;2.87;1.63;;;25.20;66.40;;;;;;5077446;28;20179;-72
2024/03/18 00:42:41;;;;;;;2.93;1.33;;;25.20;66.30;;;;;;5080875;28;20215;-72
2024/03/18 00:45:10;;;;;;;6.07;1.60;;;25.20;66.10;;;;;;5077808;28;20171;-71
2024/03/18 00:47:37;;;;;;;2.77;1.50;;;25.30;66.40;;;;;;5078528;28;20190;-73
2024/03/18 00:50:05;;;;;;;3.90;1.63;;;25.30;65.90;;;;;;5077304;28;20654;-70
2024/03/18 00:52:33;;;;;;;2.13;1.60;;;25.10;66.10;;;;;;5080254;28;20719;-73
2024/03/18 00:55:01;;;;;;;4.07;1.60;;;24.90;66.80;;;;;;5080810;28;20601;-76
2024/03/18 00:57:30;;;;;;;3.00;1.60;;;24.80;67.80;;;;;;5075329;28;20210;-72
2024/03/18 00:59:57;;;;;;;4.07;1.80;;;24.70;68.70;;;;;;5083098;28;20257;-72
2024/03/18 01:02:24;;;;;;;2.40;1.60;;;24.80;68.20;;;;;;5084076;28;20221;-72
2024/03/18 01:04:54;;;;;;;6.20;1.90;;;24.70;68.70;;;;;;5078206;28;20191;-74
2024/03/18 01:07:25;;;;;;;4.87;1.80;;;24.70;68.60;;;;;;5082985;28;20186;-75
2024/03/18 01:09:52;;;;;;;5.73;2.10;;;24.60;68.80;;;;;;5081137;28;20800;-71
2024/03/18 01:12:19;;;;;;;4.20;1.90;;;24.70;68.80;;;;;;5083190;28;20660;-77
2024/03/18 01:14:47;;;;;;;2.50;1.60;;;25.00;68.20;;;;;;5081906;28;20641;-71
2024/03/18 01:17:14;;;;;;;2.70;1.87;;;25.20;68.00;;;;;;5083810;28;20556;-72
2024/03/18 01:19:45;;;;;;;5.20;1.80;;;25.10;66.70;;;;;;5078305;28;20179;-72
2024/03/18 01:22:12;;;;;;;4.90;1.77;;;24.90;67.70;;;;;;5061163;28;20693;-70
2024/03/18 01:24:39;;;;;;;3.07;1.80;;;24.80;68.60;;;;;;5082388;28;20175;-72
2024/03/18 01:27:07;;;;;;;3.07;1.70;;;24.90;68.50;;;;;;5079842;28;20515;-74
2024/03/18 01:29:34;;;;;;;5.03;1.93;;;25.00;67.80;;;;;;5079549;28;20645;-77
2024/03/18 01:32:03;;;;;;;3.73;1.87;;;25.20;67.90;;;;;;5082972;28;20186;-72
2024/03/18 01:34:30;;;;;;;6.80;2.03;;;25.20;66.80;;;;;;5078040;28;20237;-73
2024/03/18 01:36:58;;;;;;;3.93;1.70;;;25.00;67.60;;;;;;5079926;28;20537;-73
2024/03/18 01:39:26;;;;;;;3.33;1.60;;;24.90;66.50;;;;;;5083545;28;20777;-73
2024/03/18 01:41:53;;;;;;;3.43;1.90;;;25.20;67.30;;;;;;5082328;28;20214;-74
2024/03/18 01:44:20;;;;;;;5.60;1.83;;;25.20;66.80;;;;;;5076967;28;20179;-71
2024/03/18 01:46:48;;;;;;;3.83;1.90;;;25.20;66.50;;;;;;5075790;28;21317;-76
2024/03/18 01:49:15;;;;;;;5.97;1.70;;;25.10;66.20;;;;;;5074599;28;20207;-74
2024/03/18 01:51:42;;;;;;;4.07;1.90;;;25.30;65.60;;;;;;5077015;28;20210;-76
2024/03/18 01:54:11;;;;;;;3.50;1.50;;;25.30;66.20;;;;;;5074505;28;20187;-74
2024/03/18 01:56:38;;;;;;;3.47;1.33;;;25.50;66.40;;;;;;5078486;28;20183;-77
2024/03/18 01:59:06;;;;;;;4.67;2.30;;;25.60;65.80;;;;;;5074731;28;20198;-74
2024/03/18 02:01:33;;;;;;;2.23;1.70;;;25.50;65.60;;;;;;5074462;28;20309;-74
2024/03/18 02:04:09;;;;;;;2.20;1.57;;;25.60;65.20;;;;;;5074671;28;20541;-77
2024/03/18 02:06:41;;;;;;;4.40;1.77;;;25.60;65.00;;;;;;5077122;28;20191;-73
2024/03/18 02:09:09;;;;;;;3.17;1.87;;;25.70;64.80;;;;;;5075028;28;20191;-75
2024/03/18 02:11:36;;;;;;;2.30;1.60;;;25.60;65.90;;;;;;5073633;28;20183;-74
2024/03/18 02:14:13;;;;;;;2.30;1.50;;;25.50;65.10;;;;;;5079004;28;20622;-77
2024/03/18 02:16:40;;;;;;;4.50;1.93;;;25.50;64.40;;;;;;5078262;28;20198;-73
2024/03/18 02:19:08;;;;;;;3.37;1.93;;;25.30;65.90;;;;;;5077161;28;20197;-73
2024/03/18 02:21:35;;;;;;;2.67;1.80;;;25.30;66.00;;;;;;5076737;28;20207;-76
2024/03/18 02:24:06;;;;;;;5.40;1.80;;;25.20;65.70;;;;;;5073939;28;20258;-75
2024/03/18 02:26:34;;;;;;;2.93;1.90;;;25.10;66.00;;;;;;5073806;28;20183;-77
2024/03/18 02:29:02;;;;;;;3.40;2.10;;;25.00;65.70;;;;;;5074639;28;20183;-77
2024/03/18 02:31:32;;;;;;;3.37;1.90;;;25.20;66.20;;;;;;5078033;28;20309;-75
2024/03/18 02:33:59;;;;;;;4.97;1.70;;;25.10;66.70;;;;;;5072442;28;20194;-75
2024/03/18 02:36:26;;;;;;;3.87;2.00;;;25.10;67.40;;;;;;5077933;28;20183;-79
2024/03/18 02:38:53;;;;;;;4.37;2.03;;;25.10;66.40;;;;;;5072918;28;20246;-74
2024/03/18 02:41:21;;;;;;;2.70;1.87;;;25.10;66.60;;;;;;5073208;28;20294;-74
2024/03/18 02:43:48;;;;;;;5.30;2.23;;;25.20;66.50;;;;;;5076980;28;20190;-71
2024/03/18 02:46:16;;;;;;;3.70;2.10;;;25.20;66.10;;;;;;5078893;28;20589;-72
2024/03/18 02:48:46;;;;;;;3.13;2.40;;;25.20;67.10;;;;;;5073982;28;20179;-73
2024/03/18 02:51:13;;;;;;;3.17;1.90;;;25.30;66.10;;;;;;5080346;28;20265;-73
2024/03/18 02:53:41;;;;;;;5.43;2.20;;;25.30;66.10;;;;;;5075541;28;20198;-73
2024/03/18 02:56:09;;;;;;;2.63;1.83;;;25.50;65.30;;;;;;5081089;28;20220;-71
2024/03/18 02:58:39;;;;;;;6.10;2.30;;;25.70;64.90;;;;;;5074286;28;20228;-72
2024/03/18 03:01:06;;;;;;;4.13;2.07;;;25.80;64.90;;;;;;5077414;28;20202;-78
2024/03/18 03:03:34;;;;;;;4.37;2.47;;;26.00;63.60;;;;;;5059137;28;20271;-78
2024/03/18 03:06:01;;;;;;;4.27;2.57;;;26.30;63.40;;;;;;5072077;28;20179;-75
2024/03/18 03:08:28;;;;;;;3.97;2.17;;;26.70;63.10;;;;;;5073880;28;20258;-78
2024/03/18 03:10:56;;;;;;;6.03;2.00;;;26.80;62.70;;;;;;5073101;28;20171;-78
2024/03/18 03:13:23;;;;;;;3.80;2.07;;;26.80;62.40;;;;;;5075294;28;20664;-71
2024/03/18 03:15:50;;;;;;;4.70;2.00;;;26.80;62.60;;;;;;5072538;28;20190;-73
2024/03/18 03:18:18;;;;;;;3.80;2.20;;;26.80;61.90;;;;;;5075293;28;20178;-73
2024/03/18 03:20:45;;;;;;;5.47;2.30;;;26.70;62.80;;;;;;5070655;28;20704;-73
2024/03/18 03:23:17;;;;;;;3.47;2.03;;;26.40;64.90;;;;;;5075904;28;20532;-77
2024/03/18 03:25:44;;;;;;;7.00;2.43;;;26.30;64.60;;;;;;5078162;28;20203;-76
2024/03/18 03:28:13;;;;;;;5.33;2.70;;;26.20;65.00;;;;;;5077803;28;20191;-78
2024/03/18 03:30:40;;;;;;;7.33;2.70;;;26.10;66.00;;;;;;5075200;28;20245;-80
2024/03/18 03:33:08;;;;;;;5.67;2.87;;;26.10;66.20;;;;;;5079007;28;20187;-73
2024/03/18 03:35:35;;;;;;;5.97;2.70;;;25.90;65.80;;;;;;5070335;28;20183;-73
2024/03/18 03:38:03;;;;;;;5.70;2.50;;;25.90;66.60;;;;;;5076894;28;20234;-71
2024/03/18 03:40:33;;;;;;;4.83;2.20;;;26.00;66.50;;;;;;5081359;28;20662;-72
2024/03/18 03:43:04;;;;;;;7.90;2.37;;;25.90;66.20;;;;;;5078348;28;20516;-70
2024/03/18 03:45:32;;;;;;;4.67;2.23;;;26.30;65.40;;;;;;5077081;28;20187;-73
2024/03/18 03:47:59;;;;;;;7.30;2.47;;;26.40;64.80;;;;;;5076360;28;20178;-73
2024/03/18 03:50:26;;;;;;;5.43;2.27;;;26.70;64.20;;;;;;5074635;28;20634;-72
2024/03/18 03:52:53;;;;;;;8.73;2.47;;;26.90;63.20;;;;;;5080708;28;20178;-72
2024/03/18 03:55:21;;;;;;;2.93;2.27;;;27.50;62.50;;;;;;5073623;28;20341;-78
2024/03/18 03:57:48;;;;;;;4.13;2.47;;;28.20;59.90;;;;;;5095967;28;20311;-72
2024/03/18 04:00:17;;;;;;;4.17;2.50;;;28.60;57.00;;;;;;5080329;28;20642;-73
2024/03/18 04:02:44;;;;;;;5.13;2.40;;;28.30;58.10;;;;;;5078361;28;20681;-72
2024/03/18 04:05:12;;;;;;;6.77;2.73;;;28.40;58.50;;;;;;5070067;28;20175;-72
2024/03/18 04:07:39;;;;;;;5.10;2.43;;;29.20;57.30;;;;;;5076749;28;20189;-74
2024/03/18 04:10:07;;;;;;;7.82;2.55;;;29.80;55.70;;;;;;5079865;28;20202;-72
2024/03/18 04:12:35;;;;;;;4.30;1.60;;;30.00;54.10;;;;;;5079851;28;20205;-71
2024/03/18 04:15:07;;;;;;;5.53;2.53;;;29.20;54.50;;;;;;5071861;28;20193;-72
2024/03/18 04:17:35;;;;;;;8.40;2.27;;;28.00;58.60;;;;;;5080327;28;20281;-69
2024/03/18 04:20:14;;;;;;;4.17;2.27;;;27.70;59.70;;;;;;5080539;28;20774;-75
2024/03/18 04:22:42;;;;;;;5.30;1.97;;;27.30;60.10;;;;;;5081099;28;20211;-78
2024/03/18 04:25:09;;;;;;;3.77;2.50;;;27.30;61.00;;;;;;5076549;28;20201;-79
2024/03/18 04:27:36;;;;;;;4.43;2.20;;;26.80;61.70;;;;;;5073374;28;20709;-76
2024/03/18 04:30:05;;;;;;;3.13;2.10;;;26.70;63.00;;;;;;5074825;28;20236;-79
2024/03/18 04:32:32;;;;;;;3.43;1.97;;;26.60;62.50;;;;;;5065877;28;20633;-79
2024/03/18 04:35:02;;;;;;;4.73;2.13;;;26.80;62.80;;;;;;5068642;28;20198;-79
2024/03/18 04:37:46;;;;;;;6.33;2.40;;;26.80;62.60;;;;;;5062702;28;20187;-74
2024/03/18 04:40:19;;;;;;;5.60;1.90;;;26.80;64.30;;;;;;5070888;28;20194;-74
2024/03/18 04:42:47;;;;;;;3.53;1.73;;;26.90;63.50;;;;;;5076689;28;20761;-78
2024/03/18 04:45:19;;;;;;;5.97;2.30;;;26.80;63.30;;;;;;5070887;28;20196;-75
2024/03/18 04:47:51;;;;;;;3.33;1.80;;;26.70;65.20;;;;;;5074372;28;20199;-77
2024/03/18 04:50:25;;;;;;;5.07;1.97;;;26.60;65.30;;;;;;5069885;28;20202;-73
2024/03/18 04:52:55;;;;;;;3.70;1.63;;;26.40;65.30;;;;;;5072915;28;20181;-74
2024/03/18 04:55:23;;;;;;;4.20;1.67;;;26.60;65.50;;;;;;5070879;28;20266;-74
2024/03/18 04:57:58;;;;;;;6.17;2.33;;;26.40;65.60;;;;;;5075041;28;20229;-72
2024/03/18 05:00:27;;;;;;;3.60;1.90;;;26.70;65.00;;;;;;5070294;28;20183;-76
2024/03/18 05:02:54;;;;;;;4.10;1.90;;;26.70;64.60;;;;;;5074251;28;20222;-72
2024/03/18 05:05:23;;;;;;;4.90;1.90;;;26.40;65.40;;;;;;5070979;28;20179;-74
2024/03/18 05:07:54;;;;;;;5.03;2.10;;;26.30;65.30;;;;;;5081678;28;20190;-73
2024/03/18 05:10:21;;;;;;;4.07;2.00;;;26.20;65.50;;;;;;5070441;28;20187;-77
2024/03/18 05:12:49;;;;;;;6.33;2.53;;;26.30;65.30;;;;;;5070653;28;20934;-74
2024/03/18 05:15:18;;;;;;;8.10;2.33;;;26.40;65.10;;;;;;5072425;28;20533;-75
2024/03/18 05:17:47;;;;;;;5.03;2.10;;;26.20;65.50;;;;;;5072631;28;20195;-71
2024/03/18 05:20:15;;;;;;;3.43;2.07;;;26.30;66.10;;;;;;5070954;28;20339;-69
2024/03/18 05:22:45;;;;;;;4.33;2.03;;;26.30;64.80;;;;;;5078929;28;20214;-73
2024/03/18 05:25:15;;;;;;;3.50;2.10;;;26.20;65.50;;;;;;5074227;28;20230;-72
2024/03/18 05:27:42;;;;;;;4.53;1.80;;;26.40;65.30;;;;;;5069458;28;20207;-71
2024/03/18 05:30:11;;;;;;;4.13;1.73;;;26.70;65.30;;;;;;5074373;28;20269;-72
2024/03/18 05:32:39;;;;;;;5.13;1.80;;;26.70;64.80;;;;;;5077617;28;20185;-73
2024/03/18 05:35:09;;;;;;;4.83;2.00;;;26.80;64.30;;;;;;5075037;28;20190;-71
2024/03/18 05:37:37;;;;;;;4.43;2.43;;;26.70;65.00;;;;;;5079503;28;20683;-78
2024/03/18 05:40:06;;;;;;;3.83;2.30;;;26.50;65.10;;;;;;5078998;28;20663;-73
2024/03/18 05:42:37;;;;;;;4.43;1.97;;;26.40;65.70;;;;;;5083307;28;20225;-75
2024/03/18 05:45:05;;;;;;;4.37;2.30;;;26.50;64.90;;;;;;5080472;28;20187;-73
2024/03/18 05:47:32;;;;;;;4.87;2.27;;;26.20;66.30;;;;;;5080674;28;20694;-73
2024/03/18 05:50:00;;;;;;;6.77;2.97;;;25.90;67.50;;;;;;5074226;28;20320;-72
2024/03/18 05:52:28;;;;;;;5.67;2.20;;;25.90;67.50;;;;;;5082777;28;20635;-75
2024/03/18 05:54:56;;;;;;;5.30;2.30;;;25.80;68.00;;;;;;5081295;28;20221;-73
2024/03/18 05:57:25;;;;;;;7.37;2.73;;;25.80;69.20;;;;;;5071942;28;20187;-73
2024/03/18 05:59:52;;;;;;;7.63;2.23;;;25.90;69.20;;;;;;5079670;28;20178;-74
2024/03/18 06:02:19;;;;;;;5.87;2.50;;;26.80;67.70;;;;;;5080690;28;20743;-74
2024/03/18 06:04:47;;;;;;;6.70;3.27;;;27.60;65.60;;;;;;5080103;28;20225;-73
2024/03/18 06:07:21;;;;;;;7.03;2.87;;;27.80;64.90;;;;;;5060713;28;20198;-72
2024/03/18 06:09:59;;;;;;;6.70;3.30;;;27.90;65.10;;;;;;5079678;28;20244;-73
2024/03/18 06:12:30;;;;;;;6.70;3.70;;;27.10;65.60;;;;;;5072490;28;20270;-73
2024/03/18 06:15:00;;;;;;;5.87;3.73;;;26.50;68.00;;;;;;5082985;28;20198;-73
2024/03/18 06:17:28;;;;;;;6.00;3.30;;;26.10;69.90;;;;;;5072762;28;20218;-78
2024/03/18 06:19:58;;;;;;;5.57;3.83;;;26.00;70.20;;;;;;5083076;28;20659;-79
2024/03/18 06:22:27;;;;;;;5.90;3.60;;;25.70;71.10;;;;;;5071490;28;20323;-73
2024/03/18 06:27:40;;;;;;;4.10;1.77;;;25.30;72.90;;;;;;5062826;28;20194;-75
2024/03/18 06:30:07;;;;;;;4.13;1.80;;;25.10;73.70;;;;;;5078835;28;20194;-73
2024/03/18 06:32:35;;;;;;;5.57;1.60;;;24.90;74.90;;;;;;5080697;28;20578;-74
2024/03/18 06:35:04;;;;;;;5.80;1.30;;;24.80;75.70;;;;;;5081236;28;20179;-78
2024/03/18 06:37:35;;;;;;;4.50;1.30;;;24.50;76.60;;;;;;5078515;28;20585;-76
2024/03/18 06:40:07;;;;;;;3.20;1.37;;;24.40;77.30;;;;;;5073616;28;20312;-73
2024/03/18 06:42:34;;;;;;;5.07;1.23;;;24.40;77.50;;;;;;5081992;28;20214;-75
2024/03/18 06:45:02;;;;;;;3.90;1.10;;;24.40;77.60;;;;;;5082880;28;20185;-72
2024/03/18 06:47:29;;;;;;;5.53;1.50;;;24.40;78.00;;;;;;5081767;28;20175;-74
2024/03/18 06:49:58;;;;;;;6.97;1.30;;;24.30;78.20;;;;;;5080358;28;20636;-75
2024/03/18 06:52:37;;;;;;;5.50;1.37;;;24.20;78.50;;;;;;5059938;28;20209;-74
2024/03/18 06:55:05;;;;;;;7.50;1.50;;;24.10;78.80;;;;;;5079465;28;20268;-74
2024/03/18 06:57:34;;;;;;;9.37;1.43;;;24.10;78.90;;;;;;5077550;28;20319;-73
2024/03/18 07:00:04;;;;;;;4.43;1.27;;;24.00;79.10;;;;;;5070602;28;20278;-74
2024/03/18 07:02:34;;;;;;;3.07;1.03;;;23.90;79.30;;;;;;5075567;28;20210;-77
2024/03/18 07:05:01;;;;;;;4.27;1.30;;;23.90;79.60;;;;;;5078938;28;20178;-76
2024/03/18 07:07:31;;;;;;;3.43;1.20;;;23.90;79.70;;;;;;5076032;28;20183;-72
2024/03/18 07:10:01;;;;;;;3.60;1.30;;;23.90;79.50;;;;;;5078524;28;20277;-73
2024/03/18 07:12:29;;;;;;;5.43;1.40;;;23.90;79.40;;;;;;5071062;28;20184;-73
2024/03/18 07:15:01;;;;;;;5.47;1.40;;;23.90;79.70;;;;;;5083640;28;20185;-73
2024/03/18 07:17:28;;;;;;;3.30;1.50;;;23.80;79.70;;;;;;5069636;28;20274;-74
2024/03/18 07:19:56;;;;;;;2.93;1.30;;;23.80;80.20;;;;;;5081223;28;20183;-74
2024/03/18 07:22:26;;;;;;;5.80;1.90;;;23.80;80.40;;;;;;5066852;28;20283;-71
2024/03/18 07:24:56;;;;;;;5.70;2.53;;;23.80;80.60;;;;;;5084427;28;20213;-73
2024/03/18 07:27:27;;;;;;;5.97;2.40;;;23.80;81.10;;;;;;5071532;28;20183;-75
2024/03/18 07:29:56;;;;;;;5.77;3.30;;;23.70;81.00;;;;;;5081146;28;20233;-72
2024/03/18 07:32:27;;;;;;;7.57;4.00;;;23.80;81.30;;;;;;5069175;28;20370;-70
2024/03/18 07:34:54;;;;;;;6.53;4.77;;;23.70;81.50;;;;;;5082960;28;20228;-71
2024/03/18 07:37:23;;;;;;;6.50;5.47;;;23.60;81.80;;;;;;5073799;28;20210;-77
2024/03/18 07:39:51;;;;;;;7.63;6.87;;;23.50;82.00;;;;;;5084211;28;20205;-76
2024/03/18 07:42:18;;;;;;;15.00;10.33;;;23.50;82.30;;;;;;5055990;28;20226;-74
2024/03/18 07:44:47;;;;;;;12.97;11.87;;;23.50;82.60;;;;;;5085137;28;20245;-73
2024/03/18 07:47:18;;;;;;;15.00;13.90;;;23.40;82.80;;;;;;5040542;28;20549;-72
2024/03/18 07:49:45;;;;;;;16.57;15.40;;;23.40;82.70;;;;;;5095483;28;20184;-73
2024/03/18 07:52:17;;;;;;;17.60;16.20;;;23.40;82.80;;;;;;5074546;28;20179;-71
2024/03/18 07:54:45;;;;;;;29.07;24.47;;;23.40;83.30;;;;;;5062467;28;20183;-75
2024/03/18 07:57:13;;;;;;;32.07;29.13;;;23.40;85.50;;;;;;5070476;28;20203;-74
2024/03/18 07:59:40;;;;;;;39.10;36.60;;;23.20;86.40;;;;;;5078806;28;20515;-73
2024/03/18 08:02:08;;;;;;;48.47;45.37;;;22.90;87.30;;;;;;5076275;28;20223;-73
2024/03/18 08:04:35;;;;;;;44.87;42.23;;;22.90;88.20;;;;;;5080094;28;20179;-74
2024/03/18 08:07:05;;;;;;;51.27;48.00;;;22.90;89.00;;;;;;5076464;28;20179;-75
2024/03/18 08:09:32;;;;;;;60.90;56.53;;;22.90;89.40;;;;;;5079491;28;20180;-75
2024/03/18 08:12:00;;;;;;;70.10;65.73;;;22.80;89.60;;;;;;5075863;28;20557;-75
2024/03/18 08:14:29;;;;;;;79.37;74.67;;;22.80;90.00;;;;;;5076552;28;20175;-75
2024/03/18 08:16:58;;;;;;;98.17;92.63;;;22.70;90.50;;;;;;5074151;28;20214;-75
2024/03/18 08:19:25;;;;;;;110.70;104.30;;;22.40;90.60;;;;;;5075535;28;20641;-74
2024/03/18 08:21:55;;;;;;;121.90;115.20;;;22.40;91.30;;;;;;5072735;28;20222;-75
2024/03/18 08:24:24;;;;;;;127.07;120.03;;;22.30;91.40;;;;;;5071235;28;20206;-75
2024/03/18 08:26:54;;;;;;;145.53;137.83;;;22.30;91.60;;;;;;5062732;28;20198;-75
2024/03/18 08:29:22;;;;;;;154.23;145.83;;;22.20;91.60;;;;;;5087549;28;20562;-73
2024/03/18 08:31:49;;;;;;;260.40;247.60;;;22.10;91.60;;;;;;5080613;28;20174;-76
2024/03/18 08:34:17;;;;;;;258.90;246.23;;;21.90;91.80;;;;;;5079592;28;20179;-74
2024/03/18 08:36:47;;;;;;;275.33;261.83;;;21.90;92.00;;;;;;5081967;28;20215;-72
2024/03/18 08:39:14;;;;;;;260.53;247.67;;;21.90;92.00;;;;;;5080103;28;20219;-71
2024/03/18 08:41:42;;;;;;;290.33;276.37;;;21.90;92.00;;;;;;5080615;28;20195;-74
2024/03/18 08:44:09;;;;;;;286.10;272.10;;;21.80;92.00;;;;;;5078449;28;20493;-71
2024/03/18 08:46:37;;;;;;;293.50;279.13;;;21.80;92.00;;;;;;5074042;28;20253;-71
2024/03/18 08:49:05;;;;;;;303.43;288.60;;;21.80;92.20;;;;;;5074139;28;20187;-72
2024/03/18 08:51:33;;;;;;;298.13;283.27;;;21.70;92.10;;;;;;5077159;28;20187;-70
2024/03/18 08:54:00;;;;;;;321.73;306.57;;;21.70;92.20;;;;;;5054721;28;20187;-71
2024/03/18 08:56:27;;;;;;;312.03;296.97;;;21.70;92.30;;;;;;5072644;28;20538;-75
2024/03/18 08:58:58;;;;;;;310.80;296.13;;;21.70;92.40;;;;;;5069531;28;20650;-75
2024/03/18 09:01:26;;;;;;;329.13;313.30;;;21.70;92.40;;;;;;5060158;28;20218;-72
2024/03/18 09:03:54;;;;;;;325.67;309.67;;;21.70;92.50;;;;;;5058280;28;20290;-72
2024/03/18 09:06:21;;;;;;;354.90;337.43;;;21.80;92.60;;;;;;5079274;28;20199;-70
2024/03/18 09:08:49;;;;;;;341.27;325.03;;;21.70;92.50;;;;;;5076095;28;20194;-76
2024/03/18 09:11:16;;;;;;;352.10;334.83;;;21.60;92.40;;;;;;5095802;28;20576;-75
2024/03/18 09:13:44;;;;;;;344.17;327.50;;;21.60;92.40;;;;;;5074390;28;20248;-76
2024/03/18 09:16:11;;;;;;;336.87;320.80;;;21.60;92.30;;;;;;5083513;28;20289;-71
2024/03/18 09:18:39;;;;;;;330.67;315.10;;;21.50;92.30;;;;;;5085622;28;20174;-74
2024/03/18 09:21:06;;;;;;;335.07;319.13;;;21.50;92.30;;;;;;5078208;28;20202;-72
2024/03/18 09:23:33;;;;;;;313.33;298.27;;;21.50;92.20;;;;;;5083698;28;20314;-69
2024/03/18 09:26:01;;;;;;;327.10;311.43;;;21.50;92.00;;;;;;5080889;28;20190;-71
2024/03/18 09:28:28;;;;;;;325.50;309.93;;;21.50;91.90;;;;;;5077201;28;20183;-70
2024/03/18 09:31:03;;;;;;;328.53;313.03;;;21.50;91.80;;;;;;5081291;28;20185;-71
2024/03/18 09:33:31;;;;;;;338.43;322.93;;;21.60;91.90;;;;;;5085320;28;20186;-73
2024/03/18 09:35:59;;;;;;;341.17;324.83;;;21.50;91.90;;;;;;5084278;28;20182;-72
2024/03/18 09:38:27;;;;;;;360.43;343.63;;;21.50;91.80;;;;;;5086277;28;20230;-76
2024/03/18 09:41:04;;;;;;;379.70;361.97;;;21.60;91.80;;;;;;5082870;28;20192;-73
2024/03/18 09:43:39;;;;;;;371.07;353.93;;;21.60;91.80;;;;;;5085594;28;20285;-70
2024/03/18 09:46:07;;;;;;;387.47;369.43;;;21.60;91.80;;;;;;5060908;28;20643;-75
2024/03/18 09:48:35;;;;;;;381.47;363.70;;;21.60;91.80;;;;;;5077400;28;20282;-70
2024/03/18 09:51:03;;;;;;;388.93;370.77;;;21.60;91.70;;;;;;5080869;28;20186;-77
2024/03/18 09:53:32;;;;;;;397.57;378.47;;;21.60;91.90;;;;;;5079139;28;20191;-69
2024/03/18 09:55:59;;;;;;;387.73;369.53;;;21.60;91.80;;;;;;5077762;28;20524;-71
2024/03/18 09:58:26;;;;;;;402.77;383.83;;;21.70;91.90;;;;;;5076187;28;20187;-69
2024/03/18 10:00:54;;;;;;;402.70;383.50;;;21.70;91.80;;;;;;5064068;28;20182;-73
2024/03/18 10:03:22;;;;;;;390.37;372.33;;;21.70;91.80;;;;;;5073161;28;20184;-80
2024/03/18 10:05:50;;;;;;;396.43;377.47;;;21.80;91.80;;;;;;5079030;28;20573;-71
2024/03/18 10:08:19;;;;;;;381.73;363.43;;;21.70;91.70;;;;;;5074146;28;20626;-75
2024/03/18 10:10:51;;;;;;;396.43;378.10;;;21.70;91.70;;;;;;5094434;28;20642;-70
2024/03/18 10:13:23;;;;;;;405.03;386.17;;;21.70;91.70;;;;;;5091348;28;20183;-73
2024/03/18 10:15:53;;;;;;;395.43;376.70;;;21.70;91.80;;;;;;5077953;28;20182;-70
2024/03/18 10:18:30;;;;;;;399.90;381.33;;;21.70;91.80;;;;;;5054715;28;20225;-69
2024/03/18 10:21:02;;;;;;;382.33;364.77;;;21.70;91.80;;;;;;5081432;28;20662;-74
2024/03/18 10:23:30;;;;;;;390.83;372.77;;;21.70;91.70;;;;;;5079520;28;20188;-71
2024/03/18 10:26:01;;;;;;;400.77;382.20;;;21.70;91.60;;;;;;5080751;28;20525;-70
2024/03/18 10:28:28;;;;;;;395.70;376.53;;;21.70;91.70;;;;;;5077251;28;20183;-75
2024/03/18 10:30:57;;;;;;;402.93;383.87;;;21.80;91.70;;;;;;5082610;28;20224;-68
2024/03/18 10:33:25;;;;;;;397.27;377.90;;;21.80;91.70;;;;;;5080099;28;20192;-71
2024/03/18 10:36:03;;;;;;;399.17;379.63;;;21.80;91.70;;;;;;5082188;28;20176;-81
2024/03/18 10:38:34;;;;;;;394.83;376.07;;;21.80;91.60;;;;;;5085076;28;20352;-72
2024/03/18 10:41:03;;;;;;;404.23;385.27;;;21.80;91.80;;;;;;5081525;28;20191;-74
2024/03/18 10:43:37;;;;;;;392.20;373.67;;;21.80;91.70;;;;;;5077808;28;20186;-73
2024/03/18 10:46:05;;;;;;;418.40;398.90;;;21.80;91.80;;;;;;5079697;28;20190;-78
2024/03/18 10:48:34;;;;;;;429.20;409.03;;;21.90;91.90;;;;;;5077300;28;20187;-79
2024/03/18 10:51:02;;;;;;;413.27;393.53;;;21.80;91.80;;;;;;5077131;28;20183;-74
2024/03/18 10:53:30;;;;;;;408.27;388.77;;;21.80;91.90;;;;;;5080721;28;20324;-70
2024/03/18 10:55:59;;;;;;;416.33;396.33;;;21.80;91.90;;;;;;5076657;28;20183;-76
2024/03/18 10:58:31;;;;;;;409.23;389.83;;;21.80;91.90;;;;;;5079269;28;20229;-70
2024/03/18 11:00:59;;;;;;;432.43;411.40;;;21.80;91.90;;;;;;5075762;28;20175;-74
2024/03/18 11:03:28;;;;;;;426.33;406.13;;;21.80;92.10;;;;;;5079590;28;20175;-77
2024/03/18 11:05:58;;;;;;;432.47;411.57;;;21.80;92.20;;;;;;5076666;28;20205;-72
2024/03/18 11:08:27;;;;;;;435.00;414.10;;;21.80;92.10;;;;;;5075692;28;20183;-70
2024/03/18 11:10:56;;;;;;;438.83;418.10;;;21.80;92.20;;;;;;5083751;28;20175;-73
2024/03/18 11:13:36;;;;;;;447.77;425.63;;;21.80;92.10;;;;;;5086881;28;20566;-71
2024/03/18 11:16:09;;;;;;;431.20;410.87;;;21.80;92.10;;;;;;5082139;28;20221;-74
2024/03/18 11:18:45;;;;;;;445.33;424.00;;;21.70;91.90;;;;;;5087897;28;20564;-73
2024/03/18 11:21:21;;;;;;;445.33;424.20;;;21.70;92.00;;;;;;5079156;28;20279;-79
2024/03/18 11:24:02;;;;;;;445.40;423.93;;;21.60;91.90;;;;;;5084210;28;20210;-79
2024/03/18 11:26:35;;;;;;;445.17;423.73;;;21.50;91.90;;;;;;5078943;28;20183;-71
2024/03/18 11:29:10;;;;;;;441.57;420.33;;;21.60;91.90;;;;;;5075412;28;20208;-77
2024/03/18 11:31:38;;;;;;;429.17;408.53;;;21.50;92.00;;;;;;5075229;28;20340;-79
2024/03/18 11:34:12;;;;;;;452.20;430.87;;;21.50;91.90;;;;;;5074411;28;20194;-74
2024/03/18 11:36:40;;;;;;;448.30;427.17;;;21.40;92.00;;;;;;5080208;28;20191;-79
2024/03/18 11:39:12;;;;;;;437.43;416.67;;;21.30;92.00;;;;;;5075017;28;20590;-76
2024/03/18 11:41:42;;;;;;;452.80;431.03;;;21.30;92.00;;;;;;5077190;28;20540;-79
2024/03/18 11:44:18;;;;;;;440.00;419.10;;;21.30;92.00;;;;;;5075288;28;20184;-79
2024/03/18 11:46:45;;;;;;;457.23;435.07;;;21.20;92.10;;;;;;5077564;28;20228;-76
2024/03/18 11:49:17;;;;;;;478.37;455.80;;;21.20;92.30;;;;;;5075639;28;20252;-77
2024/03/18 11:51:45;;;;;;;479.37;456.50;;;21.30;92.40;;;;;;5078278;28;20562;-73
2024/03/18 11:54:12;;;;;;;485.27;461.93;;;21.30;92.50;;;;;;5075464;28;20630;-80
2024/03/18 11:56:40;;;;;;;491.00;467.80;;;21.40;92.50;;;;;;5078950;28;20195;-70
2024/03/18 11:59:14;;;;;;;499.47;475.57;;;21.50;92.60;;;;;;5076020;28;20277;-75
2024/03/18 12:01:42;;;;;;;494.10;470.53;;;21.50;92.60;;;;;;5078792;28;20210;-76
2024/03/18 12:04:10;;;;;;;503.13;479.10;;;21.50;92.60;;;;;;5071970;28;20219;-73
2024/03/18 12:06:38;;;;;;;499.37;475.83;;;21.50;92.60;;;;;;5081403;28;20570;-75
2024/03/18 12:09:06;;;;;;;508.53;484.60;;;21.50;92.70;;;;;;5078428;28;20191;-71
2024/03/18 12:11:39;;;;;;;529.50;504.20;;;21.50;92.70;;;;;;5079824;28;20179;-72
2024/03/18 12:14:08;;;;;;;530.53;505.23;;;21.50;92.80;;;;;;5079511;28;20347;-72
2024/03/18 12:16:36;;;;;;;514.87;490.73;;;21.50;92.80;;;;;;5071484;28;20224;-70
2024/03/18 12:19:09;;;;;;;523.47;498.57;;;21.50;92.90;;;;;;5080532;28;20179;-72
2024/03/18 12:21:42;;;;;;;539.93;514.10;;;21.50;92.90;;;;;;5079145;28;20210;-71
2024/03/18 12:29:43;;;;;;;539.67;514.13;;;21.60;93.10;;;;;;5074013;28;20668;-75
2024/03/18 12:32:14;;;;;;;553.37;527.20;;;21.70;93.20;;;;;;5080295;28;20186;-74
2024/03/18 12:34:44;;;;;;;558.27;531.77;;;21.70;93.20;;;;;;5061226;28;20209;-75
2024/03/18 12:37:16;;;;;;;565.03;537.90;;;21.70;93.40;;;;;;5071553;28;20232;-74
2024/03/18 12:39:46;;;;;;;588.03;560.17;;;21.60;93.30;;;;;;5073657;28;20438;-74
2024/03/18 12:42:16;;;;;;;591.57;563.40;;;21.60;93.30;;;;;;5071383;28;20907;-75
2024/03/18 12:44:44;;;;;;;595.60;567.40;;;21.50;93.50;;;;;;5075200;28;20224;-74
2024/03/18 12:47:12;;;;;;;608.47;579.30;;;21.50;93.70;;;;;;5071297;28;20179;-75
2024/03/18 12:49:39;;;;;;;601.93;573.17;;;21.50;93.70;;;;;;5074781;28;20179;-75